sensor_id;sensor_type;location;lat;lon;timestamp;pressure;altitude;pressure_sealevel;temperature;humidity
79663;BME280;69130;48.724;8.982;2023-04-25T00:01:05;95886.50;;;6.80;76.43
79663;BME280;69130;48.724;8.982;2023-04-25T00:03:33;95883.94;;;6.79;77.31
79663;BME280;69130;48.724;8.982;2023-04-25T00:05:59;95881.13;;;6.82;77.92
79663;BME280;69130;48.724;8.982;2023-04-25T00:08:28;95878.78;;;6.77;77.64
79663;BME280;69130;48.724;8.982;2023-04-25T00:10:54;95884.03;;;6.77;77.87
79663;BME280;69130;48.724;8.982;2023-04-25T00:13:19;95879.25;;;6.98;77.44
79663;BME280;69130;48.724;8.982;2023-04-25T00:15:45;95876.91;;;6.79;78.05
79663;BME280;69130;48.724;8.982;2023-04-25T00:18:11;95877.41;;;6.72;77.52
79663;BME280;69130;48.724;8.982;2023-04-25T00:20:36;95870.34;;;6.72;78.62
79663;BME280;69130;48.724;8.982;2023-04-25T00:23:02;95873.75;;;6.74;78.15
79663;BME280;69130;48.724;8.982;2023-04-25T00:25:27;95877.28;;;6.73;78.16
79663;BME280;69130;48.724;8.982;2023-04-25T00:27:52;95879.25;;;6.84;77.71
79663;BME280;69130;48.724;8.982;2023-04-25T00:30:18;95884.63;;;6.82;76.88
79663;BME280;69130;48.724;8.982;2023-04-25T00:32:43;95878.22;;;6.86;76.99
79663;BME280;69130;48.724;8.982;2023-04-25T00:35:09;95870.13;;;6.89;76.93
79663;BME280;69130;48.724;8.982;2023-04-25T00:37:34;95872.41;;;6.81;77.58
79663;BME280;69130;48.724;8.982;2023-04-25T00:40:00;95862.38;;;6.74;78.41
79663;BME280;69130;48.724;8.982;2023-04-25T00:42:25;95866.22;;;6.68;78.86
79663;BME280;69130;48.724;8.982;2023-04-25T00:44:52;95869.25;;;6.62;79.60
79663;BME280;69130;48.724;8.982;2023-04-25T00:47:18;95859.56;;;6.63;79.95
79663;BME280;69130;48.724;8.982;2023-04-25T00:49:43;95865.91;;;6.73;80.29
79663;BME280;69130;48.724;8.982;2023-04-25T00:52:10;95861.06;;;6.67;79.83
79663;BME280;69130;48.724;8.982;2023-04-25T00:54:35;95853.13;;;6.81;79.78
79663;BME280;69130;48.724;8.982;2023-04-25T00:57:01;95860.66;;;6.73;80.38
79663;BME280;69130;48.724;8.982;2023-04-25T00:59:27;95860.03;;;6.69;80.20
79663;BME280;69130;48.724;8.982;2023-04-25T01:01:54;95859.25;;;6.81;79.47
79663;BME280;69130;48.724;8.982;2023-04-25T01:04:20;95857.56;;;6.80;79.93
79663;BME280;69130;48.724;8.982;2023-04-25T01:06:46;95847.84;;;6.68;79.68
79663;BME280;69130;48.724;8.982;2023-04-25T01:09:12;95845.38;;;6.65;80.75
79663;BME280;69130;48.724;8.982;2023-04-25T01:11:37;95851.22;;;6.70;80.46
79663;BME280;69130;48.724;8.982;2023-04-25T01:14:05;95849.22;;;6.74;80.41
79663;BME280;69130;48.724;8.982;2023-04-25T01:16:31;95845.75;;;6.59;81.04
79663;BME280;69130;48.724;8.982;2023-04-25T01:18:57;95838.44;;;6.64;81.37
79663;BME280;69130;48.724;8.982;2023-04-25T01:21:22;95850.09;;;6.60;80.65
79663;BME280;69130;48.724;8.982;2023-04-25T01:23:48;95845.38;;;6.65;81.01
79663;BME280;69130;48.724;8.982;2023-04-25T01:26:13;95853.75;;;6.58;81.16
79663;BME280;69130;48.724;8.982;2023-04-25T01:28:39;95852.91;;;6.57;80.82
79663;BME280;69130;48.724;8.982;2023-04-25T01:31:08;95841.25;;;6.47;82.21
79663;BME280;69130;48.724;8.982;2023-04-25T01:33:34;95843.88;;;6.47;82.87
79663;BME280;69130;48.724;8.982;2023-04-25T01:35:59;95847.19;;;6.51;81.96
79663;BME280;69130;48.724;8.982;2023-04-25T01:38:25;95849.63;;;6.54;82.19
79663;BME280;69130;48.724;8.982;2023-04-25T01:40:51;95850.25;;;6.57;81.64
79663;BME280;69130;48.724;8.982;2023-04-25T01:43:17;95841.63;;;6.69;81.68
79663;BME280;69130;48.724;8.982;2023-04-25T01:45:43;95845.88;;;6.44;82.23
79663;BME280;69130;48.724;8.982;2023-04-25T01:48:09;95842.22;;;6.32;82.87
79663;BME280;69130;48.724;8.982;2023-04-25T01:50:38;95834.16;;;6.35;82.24
79663;BME280;69130;48.724;8.982;2023-04-25T01:53:04;95837.16;;;6.43;82.26
79663;BME280;69130;48.724;8.982;2023-04-25T01:55:30;95835.09;;;6.48;81.75
79663;BME280;69130;48.724;8.982;2023-04-25T01:57:55;95827.31;;;6.47;82.05
79663;BME280;69130;48.724;8.982;2023-04-25T02:00:21;95828.69;;;6.38;81.51
79663;BME280;69130;48.724;8.982;2023-04-25T02:02:47;95829.28;;;6.43;81.46
79663;BME280;69130;48.724;8.982;2023-04-25T02:05:13;95834.81;;;6.39;81.06
79663;BME280;69130;48.724;8.982;2023-04-25T02:07:38;95830.59;;;6.36;80.79
79663;BME280;69130;48.724;8.982;2023-04-25T02:10:04;95829.94;;;6.33;80.41
79663;BME280;69130;48.724;8.982;2023-04-25T02:12:30;95833.69;;;6.29;80.35
79663;BME280;69130;48.724;8.982;2023-04-25T02:14:57;95826.00;;;6.11;80.68
79663;BME280;69130;48.724;8.982;2023-04-25T02:17:22;95826.16;;;6.08;82.04
79663;BME280;69130;48.724;8.982;2023-04-25T02:19:48;95821.84;;;6.22;79.97
79663;BME280;69130;48.724;8.982;2023-04-25T02:22:13;95823.28;;;6.13;80.79
79663;BME280;69130;48.724;8.982;2023-04-25T02:24:39;95826.81;;;6.26;79.43
79663;BME280;69130;48.724;8.982;2023-04-25T02:27:04;95818.47;;;6.19;79.68
79663;BME280;69130;48.724;8.982;2023-04-25T02:29:30;95814.72;;;6.24;79.95
79663;BME280;69130;48.724;8.982;2023-04-25T02:31:55;95820.72;;;6.26;79.75
79663;BME280;69130;48.724;8.982;2023-04-25T02:34:21;95828.59;;;6.26;80.09
79663;BME280;69130;48.724;8.982;2023-04-25T02:36:48;95817.81;;;6.16;79.57
79663;BME280;69130;48.724;8.982;2023-04-25T02:39:13;95814.66;;;6.11;80.10
79663;BME280;69130;48.724;8.982;2023-04-25T02:41:39;95815.56;;;6.10;80.32
79663;BME280;69130;48.724;8.982;2023-04-25T02:44:04;95815.28;;;6.00;81.25
79663;BME280;69130;48.724;8.982;2023-04-25T02:46:29;95817.75;;;6.03;81.13
79663;BME280;69130;48.724;8.982;2023-04-25T02:48:55;95817.16;;;6.12;81.04
79663;BME280;69130;48.724;8.982;2023-04-25T02:51:20;95813.88;;;6.09;80.78
79663;BME280;69130;48.724;8.982;2023-04-25T02:53:45;95812.28;;;6.06;80.72
79663;BME280;69130;48.724;8.982;2023-04-25T02:56:11;95809.94;;;6.02;81.29
79663;BME280;69130;48.724;8.982;2023-04-25T02:58:36;95805.25;;;6.07;80.55
79663;BME280;69130;48.724;8.982;2023-04-25T03:01:01;95811.53;;;6.04;80.77
79663;BME280;69130;48.724;8.982;2023-04-25T03:03:27;95821.88;;;6.07;81.28
79663;BME280;69130;48.724;8.982;2023-04-25T03:05:52;95813.78;;;6.10;80.73
79663;BME280;69130;48.724;8.982;2023-04-25T03:08:18;95822.06;;;6.33;79.67
79663;BME280;69130;48.724;8.982;2023-04-25T03:10:44;95813.31;;;6.18;80.01
79663;BME280;69130;48.724;8.982;2023-04-25T03:13:10;95807.41;;;6.14;80.34
79663;BME280;69130;48.724;8.982;2023-04-25T03:15:36;95803.56;;;6.20;79.73
79663;BME280;69130;48.724;8.982;2023-04-25T03:18:02;95805.63;;;6.15;80.77
79663;BME280;69130;48.724;8.982;2023-04-25T03:20:27;95798.41;;;6.18;80.12
79663;BME280;69130;48.724;8.982;2023-04-25T03:22:53;95800.94;;;6.34;79.35
79663;BME280;69130;48.724;8.982;2023-04-25T03:25:18;95791.66;;;6.14;80.26
79663;BME280;69130;48.724;8.982;2023-04-25T03:27:44;95793.16;;;6.04;80.94
79663;BME280;69130;48.724;8.982;2023-04-25T03:30:09;95789.22;;;5.97;80.90
79663;BME280;69130;48.724;8.982;2023-04-25T03:32:35;95790.31;;;5.79;81.45
79663;BME280;69130;48.724;8.982;2023-04-25T03:35:00;95795.81;;;5.75;81.88
79663;BME280;69130;48.724;8.982;2023-04-25T03:37:26;95799.94;;;5.65;81.84
79663;BME280;69130;48.724;8.982;2023-04-25T03:39:51;95791.41;;;5.61;82.72
79663;BME280;69130;48.724;8.982;2023-04-25T03:42:16;95798.25;;;5.64;82.95
79663;BME280;69130;48.724;8.982;2023-04-25T03:44:42;95785.97;;;5.64;83.17
79663;BME280;69130;48.724;8.982;2023-04-25T03:47:08;95797.13;;;5.68;83.29
79663;BME280;69130;48.724;8.982;2023-04-25T03:49:34;95791.78;;;5.69;83.05
79663;BME280;69130;48.724;8.982;2023-04-25T03:52:00;95789.81;;;5.73;83.33
79663;BME280;69130;48.724;8.982;2023-04-25T03:54:26;95794.03;;;5.75;83.22
79663;BME280;69130;48.724;8.982;2023-04-25T03:56:51;95788.44;;;5.81;83.00
79663;BME280;69130;48.724;8.982;2023-04-25T03:59:16;95793.09;;;5.76;83.05
79663;BME280;69130;48.724;8.982;2023-04-25T04:01:42;95794.91;;;5.76;83.01
79663;BME280;69130;48.724;8.982;2023-04-25T04:04:07;95787.25;;;5.87;82.12
79663;BME280;69130;48.724;8.982;2023-04-25T04:06:32;95781.38;;;5.68;83.06
79663;BME280;69130;48.724;8.982;2023-04-25T04:08:59;95789.78;;;5.59;83.56
79663;BME280;69130;48.724;8.982;2023-04-25T04:11:24;95787.13;;;5.45;83.72
79663;BME280;69130;48.724;8.982;2023-04-25T04:13:49;95790.97;;;5.39;84.26
79663;BME280;69130;48.724;8.982;2023-04-25T04:16:15;95793.34;;;5.44;83.78
79663;BME280;69130;48.724;8.982;2023-04-25T04:18:40;95797.56;;;5.46;84.54
79663;BME280;69130;48.724;8.982;2023-04-25T04:21:05;95804.09;;;5.39;84.07
79663;BME280;69130;48.724;8.982;2023-04-25T04:23:31;95804.63;;;5.30;84.65
79663;BME280;69130;48.724;8.982;2023-04-25T04:25:56;95802.41;;;5.38;84.57
79663;BME280;69130;48.724;8.982;2023-04-25T04:28:22;95816.00;;;5.45;84.64
79663;BME280;69130;48.724;8.982;2023-04-25T04:32:22;95793.59;;;5.39;84.27
79663;BME280;69130;48.724;8.982;2023-04-25T04:34:48;95798.28;;;5.34;84.70
79663;BME280;69130;48.724;8.982;2023-04-25T04:37:14;95804.44;;;5.33;85.08
79663;BME280;69130;48.724;8.982;2023-04-25T04:39:40;95795.56;;;5.36;85.23
79663;BME280;69130;48.724;8.982;2023-04-25T04:42:05;95808.66;;;5.36;85.32
79663;BME280;69130;48.724;8.982;2023-04-25T04:44:31;95808.22;;;5.43;85.57
79663;BME280;69130;48.724;8.982;2023-04-25T04:46:58;95809.09;;;5.58;85.04
79663;BME280;69130;48.724;8.982;2023-04-25T04:49:23;95807.06;;;5.77;84.33
79663;BME280;69130;48.724;8.982;2023-04-25T04:51:49;95808.47;;;5.82;83.40
79663;BME280;69130;48.724;8.982;2023-04-25T04:54:14;95819.69;;;5.86;83.43
79663;BME280;69130;48.724;8.982;2023-04-25T04:56:40;95825.69;;;6.02;83.38
79663;BME280;69130;48.724;8.982;2023-04-25T04:59:06;95823.06;;;6.02;82.87
79663;BME280;69130;48.724;8.982;2023-04-25T05:01:32;95815.66;;;6.08;83.11
79663;BME280;69130;48.724;8.982;2023-04-25T05:03:57;95814.44;;;6.14;83.54
79663;BME280;69130;48.724;8.982;2023-04-25T05:06:26;95820.44;;;6.16;83.25
79663;BME280;69130;48.724;8.982;2023-04-25T05:08:51;95827.19;;;6.20;83.68
79663;BME280;69130;48.724;8.982;2023-04-25T05:11:18;95824.56;;;6.20;83.33
79663;BME280;69130;48.724;8.982;2023-04-25T05:13:43;95826.06;;;6.24;84.65
79663;BME280;69130;48.724;8.982;2023-04-25T05:16:09;95828.22;;;6.32;83.33
79663;BME280;69130;48.724;8.982;2023-04-25T05:18:35;95829.28;;;6.29;84.19
79663;BME280;69130;48.724;8.982;2023-04-25T05:21:01;95833.59;;;6.30;83.22
79663;BME280;69130;48.724;8.982;2023-04-25T05:23:26;95832.28;;;6.23;84.99
79663;BME280;69130;48.724;8.982;2023-04-25T05:25:53;95827.94;;;6.22;85.39
79663;BME280;69130;48.724;8.982;2023-04-25T05:28:18;95827.03;;;6.37;85.12
79663;BME280;69130;48.724;8.982;2023-04-25T05:30:43;95819.81;;;6.27;84.90
79663;BME280;69130;48.724;8.982;2023-04-25T05:33:09;95823.56;;;6.23;84.86
79663;BME280;69130;48.724;8.982;2023-04-25T05:35:34;95830.97;;;6.30;85.54
79663;BME280;69130;48.724;8.982;2023-04-25T05:37:59;95827.19;;;6.34;84.50
79663;BME280;69130;48.724;8.982;2023-04-25T05:40:25;95831.81;;;6.31;85.19
79663;BME280;69130;48.724;8.982;2023-04-25T05:42:50;95833.22;;;6.36;86.22
79663;BME280;69130;48.724;8.982;2023-04-25T05:45:15;95834.59;;;6.42;86.47
79663;BME280;69130;48.724;8.982;2023-04-25T05:47:42;95834.06;;;6.37;86.19
79663;BME280;69130;48.724;8.982;2023-04-25T05:50:08;95832.56;;;6.47;83.51
79663;BME280;69130;48.724;8.982;2023-04-25T05:52:33;95833.09;;;6.38;83.56
79663;BME280;69130;48.724;8.982;2023-04-25T05:54:59;95840.06;;;6.39;83.98
79663;BME280;69130;48.724;8.982;2023-04-25T05:57:25;95838.25;;;6.53;85.38
79663;BME280;69130;48.724;8.982;2023-04-25T05:59:51;95833.75;;;6.55;84.88
79663;BME280;69130;48.724;8.982;2023-04-25T06:02:18;95840.88;;;6.53;84.73
79663;BME280;69130;48.724;8.982;2023-04-25T06:04:43;95844.25;;;6.55;84.77
79663;BME280;69130;48.724;8.982;2023-04-25T06:07:08;95840.59;;;6.58;84.25
79663;BME280;69130;48.724;8.982;2023-04-25T06:09:34;95840.72;;;6.56;84.62
79663;BME280;69130;48.724;8.982;2023-04-25T06:12:00;95838.94;;;6.57;84.70
79663;BME280;69130;48.724;8.982;2023-04-25T06:14:26;95836.38;;;6.55;85.33
79663;BME280;69130;48.724;8.982;2023-04-25T06:16:51;95838.81;;;6.58;84.41
79663;BME280;69130;48.724;8.982;2023-04-25T06:19:16;95831.03;;;6.57;84.51
79663;BME280;69130;48.724;8.982;2023-04-25T06:21:43;95829.34;;;6.56;84.94
79663;BME280;69130;48.724;8.982;2023-04-25T06:24:09;95831.88;;;6.57;84.91
79663;BME280;69130;48.724;8.982;2023-04-25T06:26:34;95831.78;;;6.59;84.93
79663;BME280;69130;48.724;8.982;2023-04-25T06:29:00;95832.34;;;6.64;84.06
79663;BME280;69130;48.724;8.982;2023-04-25T06:31:25;95833.19;;;6.64;84.62
79663;BME280;69130;48.724;8.982;2023-04-25T06:33:51;95831.09;;;6.69;83.01
79663;BME280;69130;48.724;8.982;2023-04-25T06:36:20;95832.91;;;6.69;82.79
79663;BME280;69130;48.724;8.982;2023-04-25T06:38:50;95829.03;;;6.74;83.66
79663;BME280;69130;48.724;8.982;2023-04-25T06:41:15;95832.31;;;6.78;83.55
79663;BME280;69130;48.724;8.982;2023-04-25T06:43:40;95840.31;;;6.76;83.61
79663;BME280;69130;48.724;8.982;2023-04-25T06:46:06;95835.78;;;6.78;83.47
79663;BME280;69130;48.724;8.982;2023-04-25T06:48:31;95836.84;;;6.62;83.26
79663;BME280;69130;48.724;8.982;2023-04-25T06:50:57;95827.81;;;6.66;83.38
79663;BME280;69130;48.724;8.982;2023-04-25T06:53:22;95841.34;;;6.60;83.95
79663;BME280;69130;48.724;8.982;2023-04-25T06:55:47;95837.69;;;6.62;83.87
79663;BME280;69130;48.724;8.982;2023-04-25T06:58:13;95830.94;;;6.72;82.79
79663;BME280;69130;48.724;8.982;2023-04-25T07:00:38;95829.13;;;6.73;84.36
79663;BME280;69130;48.724;8.982;2023-04-25T07:03:03;95839.94;;;6.68;82.52
79663;BME280;69130;48.724;8.982;2023-04-25T07:05:29;95836.66;;;6.65;83.20
79663;BME280;69130;48.724;8.982;2023-04-25T07:07:54;95837.81;;;6.61;83.43
79663;BME280;69130;48.724;8.982;2023-04-25T07:10:20;95851.22;;;6.56;82.88
79663;BME280;69130;48.724;8.982;2023-04-25T07:12:46;95845.00;;;6.57;83.54
79663;BME280;69130;48.724;8.982;2023-04-25T07:15:11;95839.75;;;6.57;83.74
79663;BME280;69130;48.724;8.982;2023-04-25T07:17:37;95843.63;;;6.52;83.23
79663;BME280;69130;48.724;8.982;2023-04-25T07:20:04;95848.31;;;6.47;83.55
79663;BME280;69130;48.724;8.982;2023-04-25T07:22:29;95843.22;;;6.58;85.65
79663;BME280;69130;48.724;8.982;2023-04-25T07:24:55;95847.75;;;6.56;83.51
79663;BME280;69130;48.724;8.982;2023-04-25T07:27:20;95840.97;;;6.52;82.76
79663;BME280;69130;48.724;8.982;2023-04-25T07:29:45;95849.25;;;6.60;84.42
79663;BME280;69130;48.724;8.982;2023-04-25T07:32:11;95849.63;;;6.54;84.28
79663;BME280;69130;48.724;8.982;2023-04-25T07:34:38;95851.88;;;6.60;83.73
79663;BME280;69130;48.724;8.982;2023-04-25T07:37:04;95855.72;;;6.54;83.79
79663;BME280;69130;48.724;8.982;2023-04-25T07:39:30;95855.88;;;6.65;84.67
79663;BME280;69130;48.724;8.982;2023-04-25T07:41:55;95865.84;;;6.74;83.89
79663;BME280;69130;48.724;8.982;2023-04-25T07:44:21;95862.53;;;6.85;85.25
79663;BME280;69130;48.724;8.982;2023-04-25T07:46:46;95864.69;;;6.92;85.22
79663;BME280;69130;48.724;8.982;2023-04-25T07:49:12;95863.63;;;6.95;84.98
79663;BME280;69130;48.724;8.982;2023-04-25T07:51:37;95876.41;;;7.01;84.15
79663;BME280;69130;48.724;8.982;2023-04-25T07:54:02;95866.44;;;7.06;83.69
79663;BME280;69130;48.724;8.982;2023-04-25T07:56:28;95872.09;;;7.00;83.83
79663;BME280;69130;48.724;8.982;2023-04-25T07:58:53;95876.25;;;6.90;84.10
79663;BME280;69130;48.724;8.982;2023-04-25T08:01:19;95884.03;;;6.77;84.29
79663;BME280;69130;48.724;8.982;2023-04-25T08:03:46;95894.78;;;6.74;85.21
79663;BME280;69130;48.724;8.982;2023-04-25T08:06:11;95895.22;;;6.81;85.03
79663;BME280;69130;48.724;8.982;2023-04-25T08:08:37;95892.59;;;6.81;84.61
79663;BME280;69130;48.724;8.982;2023-04-25T08:11:02;95899.81;;;6.77;84.13
79663;BME280;69130;48.724;8.982;2023-04-25T08:13:28;95903.84;;;6.83;83.73
79663;BME280;69130;48.724;8.982;2023-04-25T08:15:53;95904.69;;;6.83;84.58
79663;BME280;69130;48.724;8.982;2023-04-25T08:18:20;95905.34;;;6.73;84.43
79663;BME280;69130;48.724;8.982;2023-04-25T08:20:45;95908.41;;;6.67;85.40
79663;BME280;69130;48.724;8.982;2023-04-25T08:23:10;95918.97;;;6.65;85.84
79663;BME280;69130;48.724;8.982;2023-04-25T08:25:36;95909.69;;;6.60;86.43
79663;BME280;69130;48.724;8.982;2023-04-25T08:28:01;95918.13;;;6.79;85.71
79663;BME280;69130;48.724;8.982;2023-04-25T08:30:28;95924.44;;;6.76;85.04
79663;BME280;69130;48.724;8.982;2023-04-25T08:32:54;95926.69;;;6.82;87.17
79663;BME280;69130;48.724;8.982;2023-04-25T08:35:20;95927.72;;;6.80;86.87
79663;BME280;69130;48.724;8.982;2023-04-25T08:37:45;95925.00;;;6.81;85.09
79663;BME280;69130;48.724;8.982;2023-04-25T08:40:15;95936.84;;;6.88;85.25
79663;BME280;69130;48.724;8.982;2023-04-25T08:42:44;95937.59;;;6.90;85.88
79663;BME280;69130;48.724;8.982;2023-04-25T08:45:10;95947.91;;;6.93;86.57
79663;BME280;69130;48.724;8.982;2023-04-25T08:47:37;95946.13;;;6.94;86.26
79663;BME280;69130;48.724;8.982;2023-04-25T08:50:04;95948.66;;;6.81;86.05
79663;BME280;69130;48.724;8.982;2023-04-25T08:52:36;95947.16;;;6.77;85.60
79663;BME280;69130;48.724;8.982;2023-04-25T08:55:02;95955.72;;;6.67;85.76
79663;BME280;69130;48.724;8.982;2023-04-25T08:57:29;95963.66;;;6.65;85.74
79663;BME280;69130;48.724;8.982;2023-04-25T08:59:56;95957.59;;;6.65;85.72
79663;BME280;69130;48.724;8.982;2023-04-25T09:02:23;95965.47;;;6.65;86.07
79663;BME280;69130;48.724;8.982;2023-04-25T09:04:49;95969.50;;;6.56;86.78
79663;BME280;69130;48.724;8.982;2023-04-25T09:07:14;95972.22;;;6.55;87.03
79663;BME280;69130;48.724;8.982;2023-04-25T09:09:43;95980.13;;;6.69;86.11
79663;BME280;69130;48.724;8.982;2023-04-25T09:12:09;95982.91;;;6.52;85.96
79663;BME280;69130;48.724;8.982;2023-04-25T09:14:35;95981.75;;;6.42;85.83
79663;BME280;69130;48.724;8.982;2023-04-25T09:17:02;95986.56;;;6.35;86.09
79663;BME280;69130;48.724;8.982;2023-04-25T09:19:32;95988.34;;;6.35;86.41
79663;BME280;69130;48.724;8.982;2023-04-25T09:22:03;96000.28;;;6.10;88.00
79663;BME280;69130;48.724;8.982;2023-04-25T09:24:39;95998.19;;;6.01;87.13
79663;BME280;69130;48.724;8.982;2023-04-25T09:27:09;96008.19;;;5.95;88.22
79663;BME280;69130;48.724;8.982;2023-04-25T09:29:37;96013.09;;;6.01;88.70
79663;BME280;69130;48.724;8.982;2023-04-25T09:34:42;96024.09;;;6.07;88.82
79663;BME280;69130;48.724;8.982;2023-04-25T09:37:11;96026.22;;;6.01;88.91
79663;BME280;69130;48.724;8.982;2023-04-25T09:39:37;96025.91;;;5.91;87.81
79663;BME280;69130;48.724;8.982;2023-04-25T09:42:04;96032.47;;;5.83;87.73
79663;BME280;69130;48.724;8.982;2023-04-25T09:44:29;96036.41;;;5.76;87.23
79663;BME280;69130;48.724;8.982;2023-04-25T09:46:55;96037.22;;;5.76;87.84
79663;BME280;69130;48.724;8.982;2023-04-25T09:49:20;96042.00;;;5.85;85.77
79663;BME280;69130;48.724;8.982;2023-04-25T09:51:59;96046.72;;;5.94;86.23
79663;BME280;69130;48.724;8.982;2023-04-25T09:54:25;96046.25;;;5.88;85.58
79663;BME280;69130;48.724;8.982;2023-04-25T09:56:52;96045.63;;;5.98;86.27
79663;BME280;69130;48.724;8.982;2023-04-25T09:59:21;96046.13;;;6.05;85.92
79663;BME280;69130;48.724;8.982;2023-04-25T10:01:49;96048.75;;;6.35;86.66
79663;BME280;69130;48.724;8.982;2023-04-25T10:04:19;96046.03;;;6.36;85.75
79663;BME280;69130;48.724;8.982;2023-04-25T10:06:47;96044.16;;;6.38;85.14
79663;BME280;69130;48.724;8.982;2023-04-25T10:09:14;96054.28;;;6.30;85.08
79663;BME280;69130;48.724;8.982;2023-04-25T10:11:40;96052.53;;;6.15;84.72
79663;BME280;69130;48.724;8.982;2023-04-25T10:14:06;96047.56;;;6.40;84.42
79663;BME280;69130;48.724;8.982;2023-04-25T10:16:32;96052.00;;;6.54;83.55
79663;BME280;69130;48.724;8.982;2023-04-25T10:18:57;96052.50;;;6.60;82.88
79663;BME280;69130;48.724;8.982;2023-04-25T10:21:24;96058.66;;;6.59;83.09
79663;BME280;69130;48.724;8.982;2023-04-25T10:23:52;96069.94;;;6.61;83.35
79663;BME280;69130;48.724;8.982;2023-04-25T10:26:18;96064.34;;;6.81;82.90
79663;BME280;69130;48.724;8.982;2023-04-25T10:29:01;96070.47;;;6.82;83.90
79663;BME280;69130;48.724;8.982;2023-04-25T10:31:27;96070.69;;;6.63;82.59
79663;BME280;69130;48.724;8.982;2023-04-25T10:33:54;96074.47;;;6.73;84.23
79663;BME280;69130;48.724;8.982;2023-04-25T10:36:23;96065.31;;;6.80;82.58
79663;BME280;69130;48.724;8.982;2023-04-25T10:38:50;96074.13;;;6.79;82.76
79663;BME280;69130;48.724;8.982;2023-04-25T10:41:20;96069.44;;;6.98;83.68
79663;BME280;69130;48.724;8.982;2023-04-25T10:43:47;96079.19;;;6.68;82.89
79663;BME280;69130;48.724;8.982;2023-04-25T10:46:27;96082.72;;;6.67;83.80
79663;BME280;69130;48.724;8.982;2023-04-25T10:48:56;96087.94;;;6.53;82.92
79663;BME280;69130;48.724;8.982;2023-04-25T10:51:32;96087.88;;;6.55;84.75
79663;BME280;69130;48.724;8.982;2023-04-25T10:56:29;96088.16;;;6.94;85.45
79663;BME280;69130;48.724;8.982;2023-04-25T10:59:13;96089.47;;;7.01;84.29
79663;BME280;69130;48.724;8.982;2023-04-25T11:01:43;96098.03;;;7.33;84.46
79663;BME280;69130;48.724;8.982;2023-04-25T11:04:28;96099.00;;;7.46;81.98
79663;BME280;69130;48.724;8.982;2023-04-25T11:09:36;96104.41;;;7.15;83.45
79663;BME280;69130;48.724;8.982;2023-04-25T11:12:03;96111.81;;;7.22;84.61
79663;BME280;69130;48.724;8.982;2023-04-25T11:14:28;96121.72;;;7.33;84.05
79663;BME280;69130;48.724;8.982;2023-04-25T11:16:58;96119.56;;;7.25;83.29
79663;BME280;69130;48.724;8.982;2023-04-25T11:19:25;96119.81;;;7.21;83.34
79663;BME280;69130;48.724;8.982;2023-04-25T11:21:54;96121.91;;;7.30;84.20
79663;BME280;69130;48.724;8.982;2023-04-25T11:24:31;96123.13;;;7.38;83.52
79663;BME280;69130;48.724;8.982;2023-04-25T11:26:58;96119.75;;;7.64;82.63
79663;BME280;69130;48.724;8.982;2023-04-25T11:29:27;96117.69;;;7.69;82.80
79663;BME280;69130;48.724;8.982;2023-04-25T11:31:54;96118.44;;;7.57;81.91
79663;BME280;69130;48.724;8.982;2023-04-25T11:34:23;96119.38;;;7.56;83.01
79663;BME280;69130;48.724;8.982;2023-04-25T11:36:49;96124.34;;;7.61;83.15
79663;BME280;69130;48.724;8.982;2023-04-25T11:39:15;96124.72;;;7.83;81.96
79663;BME280;69130;48.724;8.982;2023-04-25T11:41:41;96124.63;;;7.84;82.15
79663;BME280;69130;48.724;8.982;2023-04-25T11:44:07;96122.59;;;8.02;81.71
79663;BME280;69130;48.724;8.982;2023-04-25T11:46:35;96128.97;;;8.26;82.46
79663;BME280;69130;48.724;8.982;2023-04-25T11:49:01;96129.06;;;8.51;79.62
79663;BME280;69130;48.724;8.982;2023-04-25T11:51:26;96134.22;;;8.79;78.51
79663;BME280;69130;48.724;8.982;2023-04-25T11:53:52;96132.47;;;8.93;79.27
79663;BME280;69130;48.724;8.982;2023-04-25T11:56:18;96133.44;;;9.29;78.43
79663;BME280;69130;48.724;8.982;2023-04-25T11:59:03;96138.84;;;9.40;77.61
79663;BME280;69130;48.724;8.982;2023-04-25T12:01:31;96139.25;;;9.59;75.78
79663;BME280;69130;48.724;8.982;2023-04-25T12:03:57;96150.56;;;9.24;76.79
79663;BME280;69130;48.724;8.982;2023-04-25T12:06:27;96135.63;;;8.85;75.96
79663;BME280;69130;48.724;8.982;2023-04-25T12:09:03;96159.19;;;8.61;79.44
79663;BME280;69130;48.724;8.982;2023-04-25T12:11:31;96157.41;;;8.74;78.77
79663;BME280;69130;48.724;8.982;2023-04-25T12:14:04;96156.78;;;8.44;78.03
79663;BME280;69130;48.724;8.982;2023-04-25T12:16:43;96163.13;;;8.54;79.10
79663;BME280;69130;48.724;8.982;2023-04-25T12:19:09;96164.38;;;8.49;79.11
79663;BME280;69130;48.724;8.982;2023-04-25T12:21:35;96166.22;;;8.61;77.90
79663;BME280;69130;48.724;8.982;2023-04-25T12:24:14;96160.09;;;8.60;76.59
79663;BME280;69130;48.724;8.982;2023-04-25T12:29:23;96165.38;;;8.60;75.45
79663;BME280;69130;48.724;8.982;2023-04-25T12:31:50;96174.72;;;8.78;78.78
79663;BME280;69130;48.724;8.982;2023-04-25T12:34:16;96166.19;;;8.75;79.29
79663;BME280;69130;48.724;8.982;2023-04-25T12:36:42;96170.88;;;8.97;77.80
79663;BME280;69130;48.724;8.982;2023-04-25T12:39:07;96168.50;;;9.19;77.49
79663;BME280;69130;48.724;8.982;2023-04-25T12:41:33;96167.09;;;9.01;75.29
79663;BME280;69130;48.724;8.982;2023-04-25T12:43:58;96166.78;;;9.05;75.34
79663;BME280;69130;48.724;8.982;2023-04-25T12:46:24;96171.97;;;9.07;76.00
79663;BME280;69130;48.724;8.982;2023-04-25T12:48:49;96174.81;;;9.16;74.60
79663;BME280;69130;48.724;8.982;2023-04-25T12:51:15;96170.94;;;9.22;77.36
79663;BME280;69130;48.724;8.982;2023-04-25T12:53:40;96166.84;;;9.55;75.87
79663;BME280;69130;48.724;8.982;2023-04-25T12:56:07;96173.72;;;9.58;75.69
79663;BME280;69130;48.724;8.982;2023-04-25T12:58:33;96172.41;;;9.89;74.25
79663;BME280;69130;48.724;8.982;2023-04-25T13:00:58;96175.38;;;9.97;74.12
79663;BME280;69130;48.724;8.982;2023-04-25T13:03:24;96168.28;;;10.22;72.21
79663;BME280;69130;48.724;8.982;2023-04-25T13:05:50;96167.22;;;10.25;70.88
79663;BME280;69130;48.724;8.982;2023-04-25T13:08:18;96167.81;;;10.41;70.78
79663;BME280;69130;48.724;8.982;2023-04-25T13:10:43;96175.19;;;10.48;73.18
79663;BME280;69130;48.724;8.982;2023-04-25T13:13:09;96178.84;;;10.82;71.37
79663;BME280;69130;48.724;8.982;2023-04-25T13:15:34;96175.88;;;10.87;68.20
79663;BME280;69130;48.724;8.982;2023-04-25T13:18:00;96174.16;;;10.38;68.16